createdAt,value
2018-10-05T00:00:10.841Z,7.07
2018-10-05T00:02:38.919Z,7.17
2018-10-05T00:05:13.325Z,6.43
2018-10-05T00:07:47.828Z,6.80
2018-10-05T00:10:20.688Z,6.83
2018-10-05T00:12:48.974Z,7.13
2018-10-05T00:15:17.053Z,6.80
2018-10-05T00:17:47.995Z,7.03
2018-10-05T00:20:16.151Z,6.50
2018-10-05T00:22:51.621Z,7.10
2018-10-05T00:25:27.005Z,6.50
2018-10-05T00:28:01.517Z,7.10
2018-10-05T00:30:38.948Z,7.80
2018-10-05T00:33:12.880Z,7.57
2018-10-05T00:35:41.041Z,6.87
2018-10-05T00:38:11.908Z,7.17
2018-10-05T00:40:40.277Z,6.80
2018-10-05T00:43:08.300Z,6.40
2018-10-05T00:45:43.616Z,7.27
2018-10-05T00:48:14.506Z,6.80
2018-10-05T00:50:42.675Z,6.97
2018-10-05T00:53:15.818Z,7.20
2018-10-05T00:55:45.914Z,7.70
2018-10-05T00:58:13.952Z,6.80
2018-10-05T01:00:45.157Z,6.40
2018-10-05T01:03:13.365Z,7.77
2018-10-05T01:05:41.639Z,7.37
2018-10-05T01:08:17.117Z,7.50
2018-10-05T01:10:50.188Z,7.33
2018-10-05T01:13:18.363Z,8.00
2018-10-05T01:15:46.427Z,6.90
2018-10-05T01:18:19.295Z,7.33
2018-10-05T01:20:47.926Z,7.47
2018-10-05T01:23:16.398Z,7.80
2018-10-05T01:25:44.465Z,7.70
2018-10-05T01:28:18.996Z,7.83
2018-10-05T01:30:53.467Z,7.93
2018-10-05T01:33:26.453Z,7.83
2018-10-05T01:35:56.598Z,7.10
2018-10-05T01:38:24.779Z,7.50
2018-10-05T01:41:04.609Z,8.20
2018-10-05T01:43:32.695Z,7.63
2018-10-05T01:46:07.204Z,7.43
2018-10-05T01:51:19.386Z,7.93
2018-10-05T01:53:47.479Z,8.53
2018-10-05T01:56:20.477Z,7.47
2018-10-05T01:58:48.774Z,8.63
2018-10-05T02:01:17.030Z,7.50
2018-10-05T02:03:54.645Z,7.87
2018-10-05T02:06:22.771Z,7.30
2018-10-05T02:08:57.253Z,7.93
2018-10-05T02:11:37.155Z,8.13
2018-10-05T02:14:05.421Z,7.30
2018-10-05T02:16:33.845Z,7.57
2018-10-05T02:19:08.264Z,7.40
2018-10-05T02:21:41.662Z,7.83
2018-10-05T02:24:24.171Z,7.03
2018-10-05T02:26:52.306Z,7.43
2018-10-05T02:29:34.340Z,7.60
2018-10-05T02:32:02.694Z,7.57
2018-10-05T02:34:30.892Z,7.30
2018-10-05T02:37:10.637Z,8.17
2018-10-05T02:39:38.856Z,7.70
2018-10-05T02:42:09.825Z,7.90
2018-10-05T02:44:40.898Z,8.07
2018-10-05T02:47:09.032Z,7.50
2018-10-05T02:49:49.105Z,8.00
2018-10-05T02:52:17.598Z,7.73
2018-10-05T02:54:46.173Z,6.97
2018-10-05T02:57:16.645Z,8.50
2018-10-05T02:59:46.908Z,7.77
2018-10-05T03:02:26.521Z,7.93
2018-10-05T03:05:04.794Z,7.50
2018-10-05T03:07:32.957Z,7.50
2018-10-05T03:10:05.241Z,7.23
2018-10-05T03:12:39.748Z,7.17
2018-10-05T03:15:13.149Z,7.73
2018-10-05T03:17:47.613Z,6.50
2018-10-05T03:20:22.292Z,6.50
2018-10-05T03:22:50.378Z,6.60
2018-10-05T03:25:21.282Z,6.73
2018-10-05T03:27:49.356Z,6.93
2018-10-05T03:30:21.678Z,6.70
2018-10-05T03:32:52.071Z,7.37
2018-10-05T03:35:22.291Z,8.03
2018-10-05T03:37:50.565Z,7.80
2018-10-05T03:40:23.870Z,7.10
2018-10-05T03:43:05.786Z,8.00
2018-10-05T03:45:34.027Z,7.73
2018-10-05T03:48:02.294Z,6.93
2018-10-05T03:50:33.244Z,7.53
2018-10-05T03:53:01.623Z,8.20
2018-10-05T03:55:29.682Z,7.20
2018-10-05T03:58:01.054Z,8.40
2018-10-05T04:00:31.872Z,8.87
2018-10-05T04:03:05.477Z,8.13
2018-10-05T04:05:33.589Z,8.47
2018-10-05T04:08:07.837Z,8.30
2018-10-05T04:10:39.201Z,8.93
2018-10-05T04:13:18.037Z,8.77
2018-10-05T04:15:51.462Z,8.23
2018-10-05T04:18:22.369Z,8.40
2018-10-05T04:20:50.669Z,8.07
2018-10-05T04:23:18.821Z,8.27
2018-10-05T04:25:54.983Z,8.20
2018-10-05T04:28:30.862Z,7.80
2018-10-05T04:31:03.082Z,8.33
2018-10-05T04:33:35.494Z,8.73
2018-10-05T04:36:09.845Z,8.30
2018-10-05T04:38:41.160Z,8.03
2018-10-05T04:41:11.591Z,8.40
2018-10-05T04:43:42.157Z,7.90
2018-10-05T04:46:21.956Z,8.37
2018-10-05T04:48:55.173Z,7.23
2018-10-05T04:51:27.473Z,7.30
2018-10-05T04:54:12.592Z,7.53
2018-10-05T04:56:40.796Z,7.60
2018-10-05T04:59:12.080Z,7.70
2018-10-05T05:01:46.825Z,6.90
2018-10-05T05:04:14.938Z,8.27
2018-10-05T05:06:54.663Z,8.60
2018-10-05T05:09:27.633Z,8.70
2018-10-05T05:12:07.776Z,8.30
2018-10-05T05:14:35.868Z,8.77
2018-10-05T05:17:10.606Z,9.00
2018-10-05T05:19:38.752Z,7.97
2018-10-05T05:22:09.785Z,8.63
2018-10-05T05:24:40.814Z,8.37
2018-10-05T05:27:13.225Z,8.37
2018-10-05T05:29:44.243Z,8.50
2018-10-05T05:32:14.381Z,7.53
2018-10-05T05:34:42.546Z,8.10
2018-10-05T05:37:14.934Z,8.03
2018-10-05T05:39:45.737Z,7.53
2018-10-05T05:42:16.860Z,8.17
2018-10-05T05:44:49.344Z,8.83
2018-10-05T05:47:21.757Z,7.03
2018-10-05T05:49:53.199Z,7.07
2018-10-05T05:52:25.310Z,7.97
2018-10-05T05:54:53.482Z,7.17
2018-10-05T05:57:24.466Z,6.83
2018-10-05T05:59:54.969Z,7.07
2018-10-05T06:02:26.246Z,7.30
2018-10-05T06:04:54.638Z,6.53
2018-10-05T06:07:22.913Z,6.50
2018-10-05T06:10:00.228Z,6.90
2018-10-05T06:15:08.014Z,7.20
2018-10-05T06:17:41.192Z,6.83
2018-10-05T06:20:12.330Z,7.30
2018-10-05T06:22:40.705Z,6.77
2018-10-05T06:25:17.357Z,6.73
2018-10-05T06:27:45.558Z,6.37
2018-10-05T06:30:19.816Z,7.20
2018-10-05T06:32:50.789Z,7.23
2018-10-05T06:35:18.952Z,6.40
2018-10-05T06:37:51.919Z,7.10
2018-10-05T06:40:20.251Z,6.97
2018-10-05T06:42:48.312Z,6.50
2018-10-05T06:45:19.258Z,6.27
2018-10-05T06:47:47.459Z,6.43
2018-10-05T06:50:17.399Z,6.00
2018-10-05T06:52:49.848Z,6.53
2018-10-05T06:55:18.151Z,6.33
2018-10-05T06:57:46.476Z,6.70
2018-10-05T07:00:20.794Z,6.10
2018-10-05T07:02:58.296Z,5.83
2018-10-05T07:05:30.578Z,6.00
2018-10-05T07:08:07.208Z,6.20
2018-10-05T07:10:39.571Z,6.10
2018-10-05T07:13:13.913Z,5.90
2018-10-05T07:15:45.114Z,6.10
2018-10-05T07:18:25.636Z,5.40
2018-10-05T07:20:57.786Z,6.00
2018-10-05T07:23:26.274Z,5.27
2018-10-05T07:25:54.541Z,6.00
2018-10-05T07:28:22.759Z,6.00
2018-10-05T07:30:57.130Z,5.43
2018-10-05T07:33:31.585Z,5.53
2018-10-05T07:36:04.540Z,5.83
2018-10-05T07:38:32.637Z,5.07
2018-10-05T07:41:09.491Z,5.00
2018-10-05T07:43:37.974Z,4.93
2018-10-05T07:46:06.250Z,4.67
2018-10-05T07:48:34.309Z,5.10
2018-10-05T07:51:08.685Z,4.23
2018-10-05T07:53:48.599Z,4.30
2018-10-05T07:56:16.762Z,4.30
2018-10-05T07:58:56.506Z,4.80
2018-10-05T08:01:24.609Z,4.70
2018-10-05T08:03:56.810Z,4.43
2018-10-05T08:06:35.261Z,5.97
2018-10-05T08:09:15.066Z,3.73
2018-10-05T08:11:51.783Z,4.47
2018-10-05T08:14:19.878Z,4.10
2018-10-05T08:16:48.055Z,4.33
2018-10-05T08:19:19.139Z,3.87
2018-10-05T08:21:47.266Z,4.00
2018-10-05T08:24:29.328Z,3.90
2018-10-05T08:26:59.483Z,3.80
2018-10-05T08:29:27.709Z,3.37
2018-10-05T08:32:09.631Z,3.83
2018-10-05T08:34:37.934Z,3.57
2018-10-05T08:37:06.196Z,3.80
2018-10-05T08:39:39.517Z,3.40
2018-10-05T08:42:15.125Z,3.80
2018-10-05T08:44:46.209Z,4.00
2018-10-05T08:47:21.102Z,3.63
2018-10-05T08:49:49.355Z,3.63
2018-10-05T08:52:24.900Z,3.73
2018-10-05T08:55:02.434Z,3.73
2018-10-05T08:57:30.995Z,3.23
2018-10-05T08:59:59.224Z,3.27
2018-10-05T09:02:32.194Z,3.53
2018-10-05T09:05:00.326Z,3.40
2018-10-05T09:07:32.517Z,3.30
2018-10-05T09:10:07.921Z,3.60
2018-10-05T09:12:42.325Z,3.50
2018-10-05T09:15:14.553Z,3.00
2018-10-05T09:17:42.814Z,3.00
2018-10-05T09:20:10.898Z,3.17
2018-10-05T09:22:45.133Z,3.20
2018-10-05T09:25:16.382Z,3.20
2018-10-05T09:27:44.404Z,3.47
2018-10-05T09:30:15.458Z,3.30
2018-10-05T09:32:43.648Z,3.03
2018-10-05T09:35:11.680Z,3.40
2018-10-05T09:37:44.159Z,2.97
2018-10-05T09:40:15.407Z,3.10
2018-10-05T09:42:45.499Z,3.03
2018-10-05T09:45:16.403Z,3.47
2018-10-05T09:47:46.691Z,3.40
2018-10-05T09:50:14.915Z,2.90
2018-10-05T09:52:48.221Z,3.60
2018-10-05T09:55:21.861Z,3.17
2018-10-05T09:57:55.398Z,2.83
2018-10-05T10:00:28.875Z,3.27
2018-10-05T10:02:59.901Z,3.20
2018-10-05T10:05:30.820Z,3.33
2018-10-05T10:08:02.626Z,3.23
2018-10-05T10:10:31.326Z,2.80
2018-10-05T10:13:00.475Z,2.57
2018-10-05T10:18:03.993Z,2.53
2018-10-05T10:20:37.234Z,2.43
2018-10-05T10:23:08.798Z,2.97
2018-10-05T10:25:47.092Z,2.80
2018-10-05T10:28:18.084Z,2.60
2018-10-05T10:30:46.466Z,2.67
2018-10-05T10:33:14.559Z,3.63
2018-10-05T10:35:45.444Z,2.67
2018-10-05T10:38:13.700Z,2.50
2018-10-05T10:40:49.095Z,3.10
2018-10-05T10:43:24.571Z,2.33
2018-10-05T10:45:57.561Z,2.80
2018-10-05T10:48:25.717Z,2.93
2018-10-05T10:50:53.868Z,2.77
2018-10-05T10:53:27.057Z,2.80
2018-10-05T10:55:58.234Z,2.80
2018-10-05T10:58:26.270Z,2.60
2018-10-05T11:00:57.215Z,2.50
2018-10-05T11:03:25.301Z,2.90
2018-10-05T11:05:59.704Z,2.73
2018-10-05T11:08:30.617Z,2.47
2018-10-05T11:10:58.762Z,2.20
2018-10-05T11:13:29.646Z,2.47
2018-10-05T11:15:57.797Z,3.47
2018-10-05T11:18:28.152Z,2.90
2018-10-05T11:20:58.396Z,2.83
2018-10-05T11:23:28.821Z,2.30
2018-10-05T11:25:57.089Z,2.50
2018-10-05T11:28:25.162Z,2.43
2018-10-05T11:30:58.330Z,2.33
2018-10-05T11:33:28.473Z,2.40
2018-10-05T11:35:56.600Z,1.93
2018-10-05T11:38:27.472Z,2.10
2018-10-05T11:40:55.601Z,2.23
2018-10-05T11:43:26.579Z,1.97
2018-10-05T11:45:54.958Z,1.73
2018-10-05T11:48:25.259Z,1.83
2018-10-05T11:50:58.413Z,2.03
2018-10-05T11:53:33.911Z,2.10
2018-10-05T11:56:04.981Z,2.03
2018-10-05T11:58:33.018Z,1.77
2018-10-05T12:01:04.141Z,1.70
2018-10-05T12:03:43.994Z,1.77
2018-10-05T12:06:16.413Z,1.77
2018-10-05T12:08:50.199Z,1.90
2018-10-05T12:11:18.366Z,1.67
2018-10-05T12:13:51.329Z,1.83
2018-10-05T12:16:21.576Z,2.00
2018-10-05T12:18:52.616Z,1.70
2018-10-05T12:21:23.022Z,1.90
2018-10-05T12:24:03.058Z,2.20
2018-10-05T12:26:31.402Z,2.00
2018-10-05T12:28:59.545Z,1.73
2018-10-05T12:31:32.615Z,2.00
2018-10-05T12:34:02.762Z,1.90
2018-10-05T12:36:30.905Z,1.70
2018-10-05T12:39:07.464Z,2.23
2018-10-05T12:41:40.452Z,2.20
2018-10-05T12:44:10.705Z,1.97
2018-10-05T12:46:38.797Z,2.33
2018-10-05T12:49:13.092Z,1.90
2018-10-05T12:51:45.361Z,1.70
2018-10-05T12:54:15.562Z,1.70
2018-10-05T12:56:43.878Z,2.00
2018-10-05T12:59:14.683Z,1.80
2018-10-05T13:01:42.809Z,1.50
2018-10-05T13:04:17.392Z,1.90
2018-10-05T13:06:45.475Z,1.70
2018-10-05T13:09:16.810Z,1.67
2018-10-05T13:11:55.123Z,1.67
2018-10-05T13:14:23.190Z,1.40
2018-10-05T13:16:58.489Z,1.40
2018-10-05T13:19:32.510Z,1.27
2018-10-05T13:22:00.705Z,1.67
2018-10-05T13:24:28.891Z,1.60
2018-10-05T13:27:01.901Z,1.47
2018-10-05T13:29:34.266Z,1.67
2018-10-05T13:32:02.336Z,1.40
2018-10-05T13:34:33.429Z,1.60
2018-10-05T13:37:04.629Z,1.60
2018-10-05T13:39:32.855Z,2.00
2018-10-05T13:42:10.586Z,1.50
2018-10-05T13:44:38.699Z,1.77
2018-10-05T13:47:13.144Z,1.73
2018-10-05T13:49:43.889Z,1.60
2018-10-05T13:52:12.004Z,1.77
2018-10-05T13:54:42.942Z,1.83
2018-10-05T13:57:13.020Z,1.83
2018-10-05T13:59:45.102Z,1.50
2018-10-05T14:02:13.418Z,1.77
2018-10-05T14:04:41.574Z,1.70
2018-10-05T14:07:16.277Z,2.00
2018-10-05T14:09:44.393Z,1.70
2018-10-05T14:12:16.516Z,1.87
2018-10-05T14:14:44.709Z,1.73
2018-10-05T14:17:12.891Z,1.63
2018-10-05T14:19:44.369Z,1.60
2018-10-05T14:22:15.255Z,1.70
2018-10-05T14:24:45.451Z,2.03
2018-10-05T14:27:13.686Z,1.83
2018-10-05T14:29:49.271Z,2.00
2018-10-05T14:32:20.350Z,1.73
2018-10-05T14:34:48.602Z,2.10
2018-10-05T14:37:16.885Z,2.20
2018-10-05T14:39:56.711Z,2.10
2018-10-05T14:42:25.090Z,2.27
2018-10-05T14:44:53.223Z,2.00
2018-10-05T14:47:27.785Z,1.90
2018-10-05T14:52:39.541Z,1.80
2018-10-05T14:55:12.483Z,2.27
2018-10-05T14:57:40.853Z,2.30
2018-10-05T15:00:08.969Z,2.00
2018-10-05T15:02:43.394Z,2.23
2018-10-05T15:05:14.206Z,1.90
2018-10-05T15:07:42.331Z,2.23
2018-10-05T15:10:13.632Z,2.10
2018-10-05T15:12:44.712Z,2.47
2018-10-05T15:15:12.945Z,2.10
2018-10-05T15:17:49.310Z,2.23
2018-10-05T15:20:22.653Z,1.97
2018-10-05T15:22:53.436Z,2.30
2018-10-05T15:25:21.507Z,2.50
2018-10-05T15:27:52.675Z,2.20
2018-10-05T15:30:20.725Z,2.50
2018-10-05T15:32:55.283Z,2.17
2018-10-05T15:35:26.265Z,1.97
2018-10-05T15:38:02.334Z,2.07
2018-10-05T15:40:30.405Z,2.47
2018-10-05T15:43:01.557Z,2.30
2018-10-05T15:45:32.574Z,1.87
2018-10-05T15:48:07.286Z,2.00
2018-10-05T15:50:35.399Z,1.87
2018-10-05T15:53:08.547Z,2.27
2018-10-05T15:55:38.723Z,1.57
2018-10-05T15:58:06.863Z,2.53
2018-10-05T16:00:42.807Z,2.10
2018-10-05T16:03:11.139Z,2.30
2018-10-05T16:05:39.320Z,2.60
2018-10-05T16:08:12.337Z,2.70
2018-10-05T16:10:42.724Z,2.50
2018-10-05T16:13:10.759Z,2.30
2018-10-05T16:15:43.500Z,2.47
2018-10-05T16:18:20.221Z,2.23
2018-10-05T16:20:48.350Z,2.70
2018-10-05T16:23:16.678Z,2.13
2018-10-05T16:25:51.305Z,2.40
2018-10-05T16:28:19.474Z,2.80
2018-10-05T16:30:51.890Z,2.90
2018-10-05T16:33:20.160Z,2.53
2018-10-05T16:35:58.742Z,2.77
2018-10-05T16:38:34.083Z,2.60
2018-10-05T16:41:07.281Z,2.00
2018-10-05T16:43:35.451Z,2.13
2018-10-05T16:46:06.263Z,2.47
2018-10-05T16:48:34.662Z,2.40
2018-10-05T16:51:02.805Z,2.27
2018-10-05T16:53:33.905Z,3.00
2018-10-05T16:56:05.022Z,2.83
2018-10-05T16:58:33.218Z,2.90
2018-10-05T17:01:07.715Z,3.33
2018-10-05T17:03:44.553Z,2.43
2018-10-05T17:06:12.691Z,3.10
2018-10-05T17:08:47.709Z,3.13
2018-10-05T17:11:17.840Z,3.53
2018-10-05T17:13:46.557Z,2.90
2018-10-05T17:16:17.792Z,3.00
2018-10-05T17:18:46.040Z,3.23
2018-10-05T17:21:20.461Z,3.63
2018-10-05T17:23:51.189Z,4.40
2018-10-05T17:26:19.271Z,5.47
2018-10-05T17:28:52.434Z,5.33
2018-10-05T17:31:23.540Z,4.27
2018-10-05T17:33:51.860Z,4.37
2018-10-05T17:36:22.918Z,4.70
2018-10-05T17:38:53.033Z,3.70
2018-10-05T17:41:21.109Z,3.80
2018-10-05T17:44:01.596Z,3.63
2018-10-05T17:46:35.545Z,3.70
2018-10-05T17:49:03.894Z,3.00
2018-10-05T17:51:32.101Z,3.30
2018-10-05T17:54:03.075Z,4.60
2018-10-05T17:56:31.137Z,4.30
2018-10-05T17:59:06.439Z,4.27
2018-10-05T18:01:49.041Z,5.30
2018-10-05T18:04:22.554Z,4.23
2018-10-05T18:06:50.636Z,4.13
2018-10-05T18:09:21.905Z,4.77
2018-10-05T18:11:51.914Z,4.90
2018-10-05T18:14:25.072Z,4.93
2018-10-05T18:16:57.322Z,4.70
2018-10-05T18:19:28.514Z,4.50
2018-10-05T18:21:56.783Z,4.83
2018-10-05T18:24:29.763Z,4.73
2018-10-05T18:26:57.929Z,4.83
2018-10-05T18:29:25.990Z,4.70
2018-10-05T18:31:59.245Z,5.43
2018-10-05T18:34:29.420Z,6.43
2018-10-05T18:36:57.582Z,7.13
2018-10-05T18:39:32.187Z,7.63
2018-10-05T18:42:06.609Z,8.03
2018-10-05T18:44:40.559Z,8.33
2018-10-05T18:47:10.978Z,6.03
2018-10-05T18:49:42.126Z,6.53
2018-10-05T18:52:10.409Z,6.53
2018-10-05T18:54:45.626Z,7.33
2018-10-05T18:57:17.807Z,8.73
2018-10-05T18:59:46.111Z,9.33
2018-10-05T19:02:15.239Z,7.53
2018-10-05T19:04:48.351Z,5.90
2018-10-05T19:07:18.477Z,5.63
2018-10-05T19:09:46.618Z,5.27
2018-10-05T19:12:17.498Z,5.20
2018-10-05T19:14:45.611Z,5.13
2018-10-05T19:17:27.675Z,5.47
2018-10-05T19:19:58.121Z,5.67
2018-10-05T19:22:26.374Z,6.00
2018-10-05T19:24:54.525Z,5.40
2018-10-05T19:27:27.073Z,6.60
2018-10-05T19:30:01.854Z,5.03
2018-10-05T19:32:29.919Z,5.37
2018-10-05T19:35:04.289Z,6.30
2018-10-05T19:37:39.705Z,5.37
2018-10-05T19:40:10.621Z,4.70
2018-10-05T19:42:38.797Z,4.70
2018-10-05T19:45:07.563Z,5.10
2018-10-05T19:47:35.701Z,4.83
2018-10-05T19:52:44.794Z,4.70
2018-10-05T19:55:17.071Z,5.10
2018-10-05T19:57:51.335Z,5.40
2018-10-05T20:00:29.499Z,5.77
2018-10-05T20:02:57.793Z,5.93
2018-10-05T20:05:25.879Z,5.97
2018-10-05T20:08:00.370Z,5.37
2018-10-05T20:10:34.994Z,5.73
2018-10-05T20:13:07.234Z,7.40
2018-10-05T20:15:42.458Z,7.03
2018-10-05T20:18:13.638Z,7.60
2018-10-05T20:20:41.636Z,7.17
2018-10-05T20:23:12.659Z,6.27
2018-10-05T20:25:40.969Z,6.03
2018-10-05T20:28:09.217Z,6.10
2018-10-05T20:30:40.241Z,6.33
2018-10-05T20:33:08.729Z,6.03
2018-10-05T20:35:37.030Z,6.20
2018-10-05T20:38:05.070Z,5.87
2018-10-05T20:40:38.171Z,6.20
2018-10-05T20:43:06.371Z,5.43
2018-10-05T20:45:34.449Z,6.60
2018-10-05T20:48:05.756Z,5.67
2018-10-05T20:50:36.080Z,5.27
2018-10-05T20:53:04.250Z,5.93
2018-10-05T20:55:41.921Z,6.53
2018-10-05T20:58:10.122Z,5.80
2018-10-05T21:00:44.747Z,5.80
2018-10-05T21:03:12.861Z,5.90
2018-10-05T21:05:43.877Z,5.70
2018-10-05T21:08:11.954Z,5.73
2018-10-05T21:10:44.308Z,5.67
2018-10-05T21:13:15.189Z,5.57
2018-10-05T21:15:43.178Z,5.07
2018-10-05T21:18:15.225Z,5.73
2018-10-05T21:20:43.454Z,5.43
2018-10-05T21:23:16.646Z,5.50
2018-10-05T21:25:47.560Z,5.87
2018-10-05T21:28:15.716Z,6.30
2018-10-05T21:30:50.274Z,5.33
2018-10-05T21:33:25.190Z,5.00
2018-10-05T21:35:53.151Z,4.90
2018-10-05T21:38:27.306Z,5.70
2018-10-05T21:41:07.342Z,5.83
2018-10-05T21:43:35.719Z,5.27
2018-10-05T21:46:03.819Z,5.23
2018-10-05T21:48:44.227Z,5.30
2018-10-05T21:51:18.636Z,5.33
2018-10-05T21:53:53.011Z,4.97
2018-10-05T21:56:24.090Z,5.03
2018-10-05T21:58:52.274Z,5.07
2018-10-05T22:01:27.027Z,5.10
2018-10-05T22:03:55.104Z,4.93
2018-10-05T22:06:26.247Z,5.17
2018-10-05T22:08:56.463Z,5.70
2018-10-05T22:11:24.744Z,5.67
2018-10-05T22:14:00.799Z,5.10
2018-10-05T22:16:33.976Z,6.00
2018-10-05T22:19:02.476Z,5.77
2018-10-05T22:21:30.538Z,6.17
2018-10-05T22:24:03.069Z,5.97
2018-10-05T22:26:34.121Z,6.17
2018-10-05T22:29:05.544Z,6.80
2018-10-05T22:31:35.730Z,5.73
2018-10-05T22:34:03.910Z,6.03
2018-10-05T22:36:40.170Z,5.73
2018-10-05T22:39:13.382Z,4.90
2018-10-05T22:41:43.503Z,6.37
2018-10-05T22:44:11.684Z,5.70
2018-10-05T22:46:46.904Z,6.27
2018-10-05T22:49:26.838Z,6.33
2018-10-05T22:51:54.996Z,5.23
2018-10-05T22:54:28.487Z,5.80
2018-10-05T22:56:59.505Z,6.20
2018-10-05T22:59:30.306Z,5.70
2018-10-05T23:02:06.354Z,5.73
2018-10-05T23:04:34.411Z,5.10
2018-10-05T23:07:09.248Z,4.87
2018-10-05T23:09:37.288Z,5.10
2018-10-05T23:12:10.409Z,5.23
2018-10-05T23:14:41.437Z,5.20
2018-10-05T23:17:13.777Z,5.03
2018-10-05T23:19:45.849Z,4.93
2018-10-05T23:22:31.030Z,5.17
2018-10-05T23:24:59.277Z,4.33
2018-10-05T23:27:27.616Z,4.60
2018-10-05T23:30:04.411Z,5.37
2018-10-05T23:32:32.659Z,4.53
2018-10-05T23:35:04.986Z,4.23
2018-10-05T23:37:40.114Z,4.07
2018-10-05T23:40:20.058Z,4.70
2018-10-05T23:42:48.201Z,4.13
2018-10-05T23:45:22.848Z,3.73
2018-10-05T23:47:53.683Z,4.10
2018-10-05T23:50:21.722Z,4.00
2018-10-05T23:52:52.864Z,4.07
2018-10-05T23:55:23.037Z,4.50
2018-10-05T23:57:51.173Z,4.13
